sensor_id;sensor_type;location;lat;lon;timestamp;pressure;altitude;pressure_sealevel;temperature;humidity
29385;BME280;16367;48.736;9.218;2023-03-22T00:00:43;-23480.69;;;9.88;97.28
29385;BME280;16367;48.736;9.218;2023-03-22T00:02:45;-23482.13;;;9.93;97.31
29385;BME280;16367;48.736;9.218;2023-03-22T00:04:49;-23482.91;;;9.95;96.81
29385;BME280;16367;48.736;9.218;2023-03-22T00:06:52;-23483.84;;;9.98;96.65
29385;BME280;16367;48.736;9.218;2023-03-22T00:08:55;-23483.84;;;9.98;97.49
29385;BME280;16367;48.736;9.218;2023-03-22T00:10:57;-23481.81;;;9.92;96.96
29385;BME280;16367;48.736;9.218;2023-03-22T00:13:00;-23479.25;;;9.84;98.41
29385;BME280;16367;48.736;9.218;2023-03-22T00:15:03;-23479.09;;;9.83;98.71
29385;BME280;16367;48.736;9.218;2023-03-22T00:17:07;-23479.25;;;9.84;98.92
29385;BME280;16367;48.736;9.218;2023-03-22T00:19:10;-23478.47;;;9.81;98.56
29385;BME280;16367;48.736;9.218;2023-03-22T00:21:15;-23478.16;;;9.80;97.76
29385;BME280;16367;48.736;9.218;2023-03-22T00:23:18;-23477.03;;;9.76;99.67
29385;BME280;16367;48.736;9.218;2023-03-22T00:25:21;-23475.16;;;9.70;98.10
29385;BME280;16367;48.736;9.218;2023-03-22T00:27:24;-23474.97;;;9.70;97.98
29385;BME280;16367;48.736;9.218;2023-03-22T00:29:27;-23476.56;;;9.75;99.19
29385;BME280;16367;48.736;9.218;2023-03-22T00:31:29;-23478.31;;;9.81;99.51
29385;BME280;16367;48.736;9.218;2023-03-22T00:33:32;-23476.72;;;9.75;99.26
29385;BME280;16367;48.736;9.218;2023-03-22T00:35:35;-23481.97;;;9.92;97.04
29385;BME280;16367;48.736;9.218;2023-03-22T00:37:40;-23479.91;;;9.86;98.96
29385;BME280;16367;48.736;9.218;2023-03-22T00:39:42;-23482.44;;;9.94;97.16
29385;BME280;16367;48.736;9.218;2023-03-22T00:41:45;-23481.16;;;9.90;98.46
29385;BME280;16367;48.736;9.218;2023-03-22T00:43:48;-23479.59;;;9.85;99.64
29385;BME280;16367;48.736;9.218;2023-03-22T00:45:51;-23478.00;;;9.80;99.52
29385;BME280;16367;48.736;9.218;2023-03-22T00:47:54;-23477.38;;;9.77;99.11
29385;BME280;16367;48.736;9.218;2023-03-22T00:49:58;-23480.84;;;9.89;98.17
29385;BME280;16367;48.736;9.218;2023-03-22T00:52:00;-23483.38;;;9.97;97.03
29385;BME280;16367;48.736;9.218;2023-03-22T00:54:04;-23483.53;;;9.97;96.90
29385;BME280;16367;48.736;9.218;2023-03-22T00:56:07;-23484.66;;;10.01;96.22
29385;BME280;16367;48.736;9.218;2023-03-22T00:58:11;-23485.59;;;10.04;96.35
29385;BME280;16367;48.736;9.218;2023-03-22T01:00:15;-23485.44;;;10.03;96.23
29385;BME280;16367;48.736;9.218;2023-03-22T01:02:18;-23482.91;;;9.95;97.25
29385;BME280;16367;48.736;9.218;2023-03-22T01:04:21;-23482.13;;;9.93;97.22
29385;BME280;16367;48.736;9.218;2023-03-22T01:06:29;-23481.47;;;9.91;96.77
29385;BME280;16367;48.736;9.218;2023-03-22T01:08:32;-23478.94;;;9.83;97.41
29385;BME280;16367;48.736;9.218;2023-03-22T01:10:36;-23475.78;;;9.72;99.06
29385;BME280;16367;48.736;9.218;2023-03-22T01:12:40;-23474.34;;;9.68;98.71
29385;BME280;16367;48.736;9.218;2023-03-22T01:14:42;-23474.19;;;9.67;98.03
29385;BME280;16367;48.736;9.218;2023-03-22T01:16:45;-23472.13;;;9.61;99.12
29385;BME280;16367;48.736;9.218;2023-03-22T01:18:48;-23470.69;;;9.56;100.00
29385;BME280;16367;48.736;9.218;2023-03-22T01:20:50;-23472.28;;;9.61;98.55
29385;BME280;16367;48.736;9.218;2023-03-22T01:22:53;-23471.19;;;9.58;98.55
29385;BME280;16367;48.736;9.218;2023-03-22T01:24:56;-23468.81;;;9.50;99.46
29385;BME280;16367;48.736;9.218;2023-03-22T01:27:00;-23470.38;;;9.55;99.06
29385;BME280;16367;48.736;9.218;2023-03-22T01:29:03;-23466.56;;;9.43;100.00
29385;BME280;16367;48.736;9.218;2023-03-22T01:31:06;-23466.91;;;9.44;99.91
29385;BME280;16367;48.736;9.218;2023-03-22T01:33:09;-23467.69;;;9.47;99.60
29385;BME280;16367;48.736;9.218;2023-03-22T01:35:11;-23466.91;;;9.44;99.17
29385;BME280;16367;48.736;9.218;2023-03-22T01:37:14;-23467.22;;;9.45;98.82
29385;BME280;16367;48.736;9.218;2023-03-22T01:39:17;-23466.91;;;9.44;98.76
29385;BME280;16367;48.736;9.218;2023-03-22T01:41:19;-23468.00;;;9.48;98.33
29385;BME280;16367;48.736;9.218;2023-03-22T01:43:24;-23463.56;;;9.34;99.12
29385;BME280;16367;48.736;9.218;2023-03-22T01:45:33;-23459.91;;;9.22;100.00
29385;BME280;16367;48.736;9.218;2023-03-22T01:47:36;-23456.75;;;9.12;100.00
29385;BME280;16367;48.736;9.218;2023-03-22T01:49:39;-23458.50;;;9.18;100.00
29385;BME280;16367;48.736;9.218;2023-03-22T01:51:44;-23455.97;;;9.10;100.00
29385;BME280;16367;48.736;9.218;2023-03-22T01:53:49;-23454.38;;;9.05;100.00
29385;BME280;16367;48.736;9.218;2023-03-22T01:55:54;-23449.78;;;8.90;100.00
29385;BME280;16367;48.736;9.218;2023-03-22T01:57:59;-23447.88;;;8.84;100.00
29385;BME280;16367;48.736;9.218;2023-03-22T02:00:07;-23449.44;;;8.89;100.00
29385;BME280;16367;48.736;9.218;2023-03-22T02:02:12;-23450.41;;;8.92;100.00
29385;BME280;16367;48.736;9.218;2023-03-22T02:04:21;-23449.59;;;8.89;100.00
29385;BME280;16367;48.736;9.218;2023-03-22T02:06:25;-23450.41;;;8.92;100.00
29385;BME280;16367;48.736;9.218;2023-03-22T02:08:31;-23450.56;;;8.92;100.00
29385;BME280;16367;48.736;9.218;2023-03-22T02:10:34;-23451.34;;;8.95;100.00
29385;BME280;16367;48.736;9.218;2023-03-22T02:12:44;-23452.31;;;8.98;100.00
29385;BME280;16367;48.736;9.218;2023-03-22T02:14:57;-23454.06;;;9.04;100.00
29385;BME280;16367;48.736;9.218;2023-03-22T02:17:16;-23451.19;;;8.94;100.00
29385;BME280;16367;48.736;9.218;2023-03-22T02:19:47;-23448.81;;;8.87;100.00
29385;BME280;16367;48.736;9.218;2023-03-22T02:22:08;-23446.75;;;8.80;100.00
29385;BME280;16367;48.736;9.218;2023-03-22T02:25:00;-23453.56;;;9.02;100.00
29385;BME280;16367;48.736;9.218;2023-03-22T02:27:33;-23452.00;;;8.97;100.00
29385;BME280;16367;48.736;9.218;2023-03-22T02:29:41;-23449.44;;;8.89;100.00
29385;BME280;16367;48.736;9.218;2023-03-22T02:31:56;-23449.94;;;8.90;100.00
29385;BME280;16367;48.736;9.218;2023-03-22T02:34:29;-23441.84;;;8.65;100.00
29385;BME280;16367;48.736;9.218;2023-03-22T02:36:49;-23443.41;;;8.70;100.00
29385;BME280;16367;48.736;9.218;2023-03-22T02:39:09;-23442.94;;;8.68;100.00
29385;BME280;16367;48.736;9.218;2023-03-22T02:41:16;-23446.28;;;8.79;100.00
29385;BME280;16367;48.736;9.218;2023-03-22T02:43:28;-23445.16;;;8.75;100.00
29385;BME280;16367;48.736;9.218;2023-03-22T02:45:44;-23442.31;;;8.66;100.00
29385;BME280;16367;48.736;9.218;2023-03-22T02:47:55;-23439.78;;;8.58;100.00
29385;BME280;16367;48.736;9.218;2023-03-22T02:50:06;-23438.66;;;8.55;100.00
29385;BME280;16367;48.736;9.218;2023-03-22T02:52:13;-23437.06;;;8.50;100.00
29385;BME280;16367;48.736;9.218;2023-03-22T02:54:24;-23437.06;;;8.50;100.00
29385;BME280;16367;48.736;9.218;2023-03-22T02:56:32;-23436.44;;;8.48;100.00
29385;BME280;16367;48.736;9.218;2023-03-22T02:58:38;-23435.16;;;8.44;100.00
29385;BME280;16367;48.736;9.218;2023-03-22T03:00:50;-23438.66;;;8.55;100.00
29385;BME280;16367;48.736;9.218;2023-03-22T03:02:57;-23442.63;;;8.67;100.00
29385;BME280;16367;48.736;9.218;2023-03-22T03:05:01;-23439.78;;;8.58;100.00
29385;BME280;16367;48.736;9.218;2023-03-22T03:07:07;-23437.72;;;8.52;100.00
29385;BME280;16367;48.736;9.218;2023-03-22T03:09:12;-23440.25;;;8.60;100.00
29385;BME280;16367;48.736;9.218;2023-03-22T03:11:19;-23437.41;;;8.51;100.00
29385;BME280;16367;48.736;9.218;2023-03-22T03:13:22;-23436.13;;;8.47;100.00
29385;BME280;16367;48.736;9.218;2023-03-22T03:15:25;-23437.41;;;8.51;100.00
29385;BME280;16367;48.736;9.218;2023-03-22T03:17:39;-23437.72;;;8.52;100.00
29385;BME280;16367;48.736;9.218;2023-03-22T03:19:56;-23437.53;;;8.51;100.00
29385;BME280;16367;48.736;9.218;2023-03-22T03:22:14;-23434.84;;;8.43;100.00
29385;BME280;16367;48.736;9.218;2023-03-22T03:24:26;-23433.59;;;8.39;100.00
29385;BME280;16367;48.736;9.218;2023-03-22T03:26:38;-23431.34;;;8.32;100.00
29385;BME280;16367;48.736;9.218;2023-03-22T03:28:46;-23430.41;;;8.29;100.00
29385;BME280;16367;48.736;9.218;2023-03-22T03:30:55;-23428.19;;;8.21;100.00
29385;BME280;16367;48.736;9.218;2023-03-22T03:33:03;-23430.41;;;8.29;100.00
29385;BME280;16367;48.736;9.218;2023-03-22T03:35:13;-23428.81;;;8.23;100.00
29385;BME280;16367;48.736;9.218;2023-03-22T03:37:26;-23429.78;;;8.27;100.00
29385;BME280;16367;48.736;9.218;2023-03-22T03:39:32;-23425.78;;;8.14;100.00
29385;BME280;16367;48.736;9.218;2023-03-22T03:41:39;-23425.47;;;8.13;100.00
29385;BME280;16367;48.736;9.218;2023-03-22T03:43:44;-23425.00;;;8.11;100.00
29385;BME280;16367;48.736;9.218;2023-03-22T03:45:48;-23426.59;;;8.16;100.00
29385;BME280;16367;48.736;9.218;2023-03-22T03:47:54;-23427.84;;;8.20;100.00
29385;BME280;16367;48.736;9.218;2023-03-22T03:49:58;-23432.78;;;8.36;100.00
29385;BME280;16367;48.736;9.218;2023-03-22T03:52:03;-23435.81;;;8.46;100.00
29385;BME280;16367;48.736;9.218;2023-03-22T03:54:06;-23439.13;;;8.56;100.00
29385;BME280;16367;48.736;9.218;2023-03-22T03:56:09;-23445.16;;;8.75;98.43
29385;BME280;16367;48.736;9.218;2023-03-22T03:58:13;-23443.41;;;8.70;97.99
29385;BME280;16367;48.736;9.218;2023-03-22T04:00:18;-23441.34;;;8.63;98.78
29385;BME280;16367;48.736;9.218;2023-03-22T04:02:20;-23443.41;;;8.70;98.04
29385;BME280;16367;48.736;9.218;2023-03-22T04:04:25;-23442.78;;;8.68;97.96
29385;BME280;16367;48.736;9.218;2023-03-22T04:06:28;-23440.88;;;8.62;98.07
29385;BME280;16367;48.736;9.218;2023-03-22T04:08:30;-23441.84;;;8.65;98.64
29385;BME280;16367;48.736;9.218;2023-03-22T04:10:33;-23441.53;;;8.64;97.86
29385;BME280;16367;48.736;9.218;2023-03-22T04:12:35;-23442.00;;;8.65;98.55
29385;BME280;16367;48.736;9.218;2023-03-22T04:14:40;-23438.66;;;8.55;98.68
29385;BME280;16367;48.736;9.218;2023-03-22T04:16:43;-23435.97;;;8.46;99.54
29385;BME280;16367;48.736;9.218;2023-03-22T04:18:45;-23434.84;;;8.43;99.93
29385;BME280;16367;48.736;9.218;2023-03-22T04:20:48;-23436.44;;;8.48;99.63
29385;BME280;16367;48.736;9.218;2023-03-22T04:22:54;-23434.53;;;8.42;99.46
29385;BME280;16367;48.736;9.218;2023-03-22T04:24:58;-23436.44;;;8.48;99.15
29385;BME280;16367;48.736;9.218;2023-03-22T04:27:01;-23433.41;;;8.38;99.42
29385;BME280;16367;48.736;9.218;2023-03-22T04:29:04;-23434.53;;;8.42;99.97
29385;BME280;16367;48.736;9.218;2023-03-22T04:31:08;-23429.13;;;8.24;99.99
29385;BME280;16367;48.736;9.218;2023-03-22T04:33:11;-23429.13;;;8.24;100.00
29385;BME280;16367;48.736;9.218;2023-03-22T04:35:16;-23427.53;;;8.19;100.00
29385;BME280;16367;48.736;9.218;2023-03-22T04:37:19;-23425.00;;;8.11;100.00
29385;BME280;16367;48.736;9.218;2023-03-22T04:39:24;-23426.91;;;8.17;100.00
29385;BME280;16367;48.736;9.218;2023-03-22T04:41:27;-23424.06;;;8.08;100.00
29385;BME280;16367;48.736;9.218;2023-03-22T04:43:30;-23424.69;;;8.10;100.00
29385;BME280;16367;48.736;9.218;2023-03-22T04:45:35;-23422.31;;;8.03;100.00
29385;BME280;16367;48.736;9.218;2023-03-22T04:47:39;-23423.09;;;8.05;100.00
29385;BME280;16367;48.736;9.218;2023-03-22T04:49:41;-23419.44;;;7.94;100.00
29385;BME280;16367;48.736;9.218;2023-03-22T04:51:44;-23420.72;;;7.98;100.00
29385;BME280;16367;48.736;9.218;2023-03-22T04:53:47;-23421.81;;;8.01;100.00
29385;BME280;16367;48.736;9.218;2023-03-22T04:55:50;-23420.09;;;7.96;100.00
29385;BME280;16367;48.736;9.218;2023-03-22T04:57:52;-23419.59;;;7.94;100.00
29385;BME280;16367;48.736;9.218;2023-03-22T04:59:56;-23420.56;;;7.97;100.00
29385;BME280;16367;48.736;9.218;2023-03-22T05:01:58;-23419.44;;;7.94;100.00
29385;BME280;16367;48.736;9.218;2023-03-22T05:04:03;-23416.09;;;7.83;100.00
29385;BME280;16367;48.736;9.218;2023-03-22T05:06:07;-23416.28;;;7.84;100.00
29385;BME280;16367;48.736;9.218;2023-03-22T05:08:10;-23416.09;;;7.83;100.00
29385;BME280;16367;48.736;9.218;2023-03-22T05:10:14;-23419.94;;;7.95;100.00
29385;BME280;16367;48.736;9.218;2023-03-22T05:12:17;-23418.03;;;7.89;100.00
29385;BME280;16367;48.736;9.218;2023-03-22T05:14:20;-23423.72;;;8.07;100.00
29385;BME280;16367;48.736;9.218;2023-03-22T05:16:23;-23421.50;;;8.00;100.00
29385;BME280;16367;48.736;9.218;2023-03-22T05:18:26;-23422.63;;;8.04;100.00
29385;BME280;16367;48.736;9.218;2023-03-22T05:20:30;-23421.34;;;8.00;100.00
29385;BME280;16367;48.736;9.218;2023-03-22T05:22:32;-23417.38;;;7.87;100.00
29385;BME280;16367;48.736;9.218;2023-03-22T05:24:38;-23418.97;;;7.92;100.00
29385;BME280;16367;48.736;9.218;2023-03-22T05:26:41;-23417.69;;;7.88;100.00
29385;BME280;16367;48.736;9.218;2023-03-22T05:28:43;-23414.84;;;7.79;100.00
29385;BME280;16367;48.736;9.218;2023-03-22T05:30:46;-23415.16;;;7.80;100.00
29385;BME280;16367;48.736;9.218;2023-03-22T05:32:49;-23416.09;;;7.83;100.00
29385;BME280;16367;48.736;9.218;2023-03-22T05:34:52;-23417.06;;;7.86;100.00
29385;BME280;16367;48.736;9.218;2023-03-22T05:36:55;-23418.81;;;7.92;100.00
29385;BME280;16367;48.736;9.218;2023-03-22T05:38:58;-23417.69;;;7.88;100.00
29385;BME280;16367;48.736;9.218;2023-03-22T05:41:01;-23419.94;;;7.95;100.00
29385;BME280;16367;48.736;9.218;2023-03-22T05:43:03;-23418.34;;;7.90;100.00
29385;BME280;16367;48.736;9.218;2023-03-22T05:45:07;-23418.66;;;7.91;100.00
29385;BME280;16367;48.736;9.218;2023-03-22T05:47:10;-23420.88;;;7.98;100.00
29385;BME280;16367;48.736;9.218;2023-03-22T05:49:13;-23418.97;;;7.92;100.00
29385;BME280;16367;48.736;9.218;2023-03-22T05:51:16;-23422.16;;;8.02;100.00
29385;BME280;16367;48.736;9.218;2023-03-22T05:53:21;-23419.94;;;7.95;100.00
29385;BME280;16367;48.736;9.218;2023-03-22T05:55:24;-23418.50;;;7.91;100.00
29385;BME280;16367;48.736;9.218;2023-03-22T05:57:27;-23419.44;;;7.94;100.00
29385;BME280;16367;48.736;9.218;2023-03-22T05:59:30;-23419.13;;;7.93;100.00
29385;BME280;16367;48.736;9.218;2023-03-22T06:01:33;-23419.28;;;7.93;100.00
29385;BME280;16367;48.736;9.218;2023-03-22T06:03:36;-23421.81;;;8.01;100.00
29385;BME280;16367;48.736;9.218;2023-03-22T06:05:39;-23411.97;;;7.70;100.00
29385;BME280;16367;48.736;9.218;2023-03-22T06:07:42;-23406.28;;;7.52;100.00
29385;BME280;16367;48.736;9.218;2023-03-22T06:09:46;-23403.25;;;7.42;100.00
29385;BME280;16367;48.736;9.218;2023-03-22T06:11:49;-23404.53;;;7.46;100.00
29385;BME280;16367;48.736;9.218;2023-03-22T06:13:52;-23408.97;;;7.61;100.00
29385;BME280;16367;48.736;9.218;2023-03-22T06:15:58;-23407.53;;;7.56;100.00
29385;BME280;16367;48.736;9.218;2023-03-22T06:18:00;-23408.81;;;7.60;100.00
29385;BME280;16367;48.736;9.218;2023-03-22T06:20:04;-23408.97;;;7.61;100.00
29385;BME280;16367;48.736;9.218;2023-03-22T06:22:10;-23413.72;;;7.76;100.00
29385;BME280;16367;48.736;9.218;2023-03-22T06:24:13;-23413.88;;;7.76;100.00
29385;BME280;16367;48.736;9.218;2023-03-22T06:26:17;-23421.81;;;8.01;100.00
29385;BME280;16367;48.736;9.218;2023-03-22T06:28:19;-23417.38;;;7.87;100.00
29385;BME280;16367;48.736;9.218;2023-03-22T06:30:22;-23421.19;;;7.99;100.00
29385;BME280;16367;48.736;9.218;2023-03-22T06:32:25;-23425.31;;;8.12;100.00
29385;BME280;16367;48.736;9.218;2023-03-22T06:34:28;-23426.91;;;8.17;100.00
29385;BME280;16367;48.736;9.218;2023-03-22T06:36:31;-23429.44;;;8.25;100.00
29385;BME280;16367;48.736;9.218;2023-03-22T06:38:34;-23433.28;;;8.38;100.00
29385;BME280;16367;48.736;9.218;2023-03-22T06:40:36;-23436.13;;;8.47;100.00
29385;BME280;16367;48.736;9.218;2023-03-22T06:42:41;-23439.47;;;8.57;100.00
29385;BME280;16367;48.736;9.218;2023-03-22T06:44:44;-23442.63;;;8.67;98.85
29385;BME280;16367;48.736;9.218;2023-03-22T06:46:46;-23445.97;;;8.78;97.95
29385;BME280;16367;48.736;9.218;2023-03-22T06:48:49;-23446.59;;;8.80;97.68
29385;BME280;16367;48.736;9.218;2023-03-22T06:50:52;-23450.56;;;8.92;97.83
29385;BME280;16367;48.736;9.218;2023-03-22T06:52:55;-23452.63;;;8.99;96.73
29385;BME280;16367;48.736;9.218;2023-03-22T06:54:57;-23454.22;;;9.04;96.73
29385;BME280;16367;48.736;9.218;2023-03-22T06:57:00;-23455.78;;;9.09;95.33
29385;BME280;16367;48.736;9.218;2023-03-22T06:59:04;-23458.81;;;9.19;95.04
29385;BME280;16367;48.736;9.218;2023-03-22T07:01:07;-23461.81;;;9.28;95.00
29385;BME280;16367;48.736;9.218;2023-03-22T07:03:09;-23462.47;;;9.30;93.38
29385;BME280;16367;48.736;9.218;2023-03-22T07:05:12;-23468.16;;;9.48;92.17
29385;BME280;16367;48.736;9.218;2023-03-22T07:07:15;-23464.38;;;9.36;91.94
29385;BME280;16367;48.736;9.218;2023-03-22T07:09:17;-23474.19;;;9.67;90.15
29385;BME280;16367;48.736;9.218;2023-03-22T07:11:20;-23496.38;;;10.38;86.55
29385;BME280;16367;48.736;9.218;2023-03-22T07:13:23;-23511.75;;;10.87;81.93
29385;BME280;16367;48.736;9.218;2023-03-22T07:15:27;-23530.59;;;11.47;79.20
29385;BME280;16367;48.736;9.218;2023-03-22T07:17:30;-23536.94;;;11.67;77.91
29385;BME280;16367;48.736;9.218;2023-03-22T07:19:33;-23538.50;;;11.72;75.98
29385;BME280;16367;48.736;9.218;2023-03-22T07:21:35;-23539.00;;;11.73;75.16
29385;BME280;16367;48.736;9.218;2023-03-22T07:23:38;-23544.06;;;11.89;73.83
29385;BME280;16367;48.736;9.218;2023-03-22T07:25:41;-23545.47;;;11.94;73.53
29385;BME280;16367;48.736;9.218;2023-03-22T07:27:44;-23560.03;;;12.40;72.43
29385;BME280;16367;48.736;9.218;2023-03-22T07:29:47;-23564.47;;;12.54;71.90
29385;BME280;16367;48.736;9.218;2023-03-22T07:31:51;-23588.63;;;13.31;67.98
29385;BME280;16367;48.736;9.218;2023-03-22T07:33:54;-23564.78;;;12.55;69.96
29385;BME280;16367;48.736;9.218;2023-03-22T07:35:57;-23563.19;;;12.50;68.86
29385;BME280;16367;48.736;9.218;2023-03-22T07:37:59;-23565.25;;;12.57;69.20
29385;BME280;16367;48.736;9.218;2023-03-22T07:40:03;-23568.56;;;12.67;68.71
29385;BME280;16367;48.736;9.218;2023-03-22T07:42:06;-23552.28;;;12.16;68.47
29385;BME280;16367;48.736;9.218;2023-03-22T07:44:09;-23561.94;;;12.46;66.14
29385;BME280;16367;48.736;9.218;2023-03-22T07:46:18;-23562.72;;;12.49;66.91
29385;BME280;16367;48.736;9.218;2023-03-22T07:48:22;-23566.97;;;12.62;66.74
29385;BME280;16367;48.736;9.218;2023-03-22T07:50:26;-23580.44;;;13.05;64.88
29385;BME280;16367;48.736;9.218;2023-03-22T07:52:28;-23571.09;;;12.76;65.04
29385;BME280;16367;48.736;9.218;2023-03-22T07:54:31;-23581.22;;;13.08;64.96
29385;BME280;16367;48.736;9.218;2023-03-22T07:56:35;-23580.59;;;13.06;63.81
29385;BME280;16367;48.736;9.218;2023-03-22T07:58:37;-23566.81;;;12.62;63.73
29385;BME280;16367;48.736;9.218;2023-03-22T08:00:40;-23581.22;;;13.08;63.25
29385;BME280;16367;48.736;9.218;2023-03-22T08:02:43;-23613.91;;;14.12;60.68
29385;BME280;16367;48.736;9.218;2023-03-22T08:04:48;-23612.19;;;14.06;59.63
29385;BME280;16367;48.736;9.218;2023-03-22T08:06:56;-23621.50;;;14.36;57.99
29385;BME280;16367;48.736;9.218;2023-03-22T08:09:00;-23602.22;;;13.75;59.90
29385;BME280;16367;48.736;9.218;2023-03-22T08:11:03;-23635.53;;;14.81;57.47
29385;BME280;16367;48.736;9.218;2023-03-22T08:13:06;-23646.59;;;15.16;57.00
29385;BME280;16367;48.736;9.218;2023-03-22T08:15:09;-23639.34;;;14.93;56.22
29385;BME280;16367;48.736;9.218;2023-03-22T08:17:12;-23612.66;;;14.08;57.94
29385;BME280;16367;48.736;9.218;2023-03-22T08:19:15;-23625.13;;;14.48;57.36
29385;BME280;16367;48.736;9.218;2023-03-22T08:21:19;-23637.13;;;14.86;56.34
29385;BME280;16367;48.736;9.218;2023-03-22T08:23:22;-23657.00;;;15.49;55.58
29385;BME280;16367;48.736;9.218;2023-03-22T08:25:41;-23631.75;;;14.69;57.74
29385;BME280;16367;48.736;9.218;2023-03-22T08:27:44;-23636.50;;;14.84;56.91
29385;BME280;16367;48.736;9.218;2023-03-22T08:29:47;-23625.28;;;14.48;57.80
29385;BME280;16367;48.736;9.218;2023-03-22T08:31:50;-23638.22;;;14.89;56.75
29385;BME280;16367;48.736;9.218;2023-03-22T08:33:53;-23631.13;;;14.67;57.35
29385;BME280;16367;48.736;9.218;2023-03-22T08:36:04;-23609.19;;;13.97;57.94
29385;BME280;16367;48.736;9.218;2023-03-22T08:38:08;-23638.38;;;14.90;56.80
29385;BME280;16367;48.736;9.218;2023-03-22T08:40:11;-23641.84;;;15.01;56.61
29385;BME280;16367;48.736;9.218;2023-03-22T08:42:14;-23656.06;;;15.46;55.00
29385;BME280;16367;48.736;9.218;2023-03-22T08:44:17;-23634.59;;;14.78;56.48
29385;BME280;16367;48.736;9.218;2023-03-22T08:46:20;-23653.22;;;15.37;56.25
29385;BME280;16367;48.736;9.218;2023-03-22T08:48:22;-23685.69;;;16.41;53.58
29385;BME280;16367;48.736;9.218;2023-03-22T08:50:28;-23674.19;;;16.04;52.03
29385;BME280;16367;48.736;9.218;2023-03-22T08:52:34;-23699.72;;;16.86;52.83
29385;BME280;16367;48.736;9.218;2023-03-22T08:54:38;-23697.97;;;16.80;52.16
29385;BME280;16367;48.736;9.218;2023-03-22T08:56:41;-23640.91;;;14.98;56.07
29385;BME280;16367;48.736;9.218;2023-03-22T08:58:44;-23687.56;;;16.47;54.56
29385;BME280;16367;48.736;9.218;2023-03-22T09:00:47;-23708.38;;;17.13;52.20
29385;BME280;16367;48.736;9.218;2023-03-22T09:02:50;-23672.44;;;15.99;55.77
29385;BME280;16367;48.736;9.218;2023-03-22T09:04:53;-23667.09;;;15.82;55.21
29385;BME280;16367;48.736;9.218;2023-03-22T09:06:56;-23698.59;;;16.82;53.63
29385;BME280;16367;48.736;9.218;2023-03-22T09:08:58;-23708.22;;;17.13;52.37
29385;BME280;16367;48.736;9.218;2023-03-22T09:11:03;-23727.25;;;17.74;52.46
29385;BME280;16367;48.736;9.218;2023-03-22T09:13:06;-23716.53;;;17.40;51.95
29385;BME280;16367;48.736;9.218;2023-03-22T09:15:09;-23719.69;;;17.50;52.21
29385;BME280;16367;48.736;9.218;2023-03-22T09:17:12;-23748.47;;;18.42;50.91
29385;BME280;16367;48.736;9.218;2023-03-22T09:19:14;-23725.38;;;17.68;51.75
29385;BME280;16367;48.736;9.218;2023-03-22T09:21:17;-23767.34;;;19.02;49.04
29385;BME280;16367;48.736;9.218;2023-03-22T09:23:20;-23724.59;;;17.65;51.27
29385;BME280;16367;48.736;9.218;2023-03-22T09:25:22;-23687.41;;;16.47;52.98
29385;BME280;16367;48.736;9.218;2023-03-22T09:27:26;-23720.97;;;17.54;52.12
29385;BME280;16367;48.736;9.218;2023-03-22T09:29:29;-23663.94;;;15.72;55.73
29385;BME280;16367;48.736;9.218;2023-03-22T09:31:32;-23720.34;;;17.52;51.97
29385;BME280;16367;48.736;9.218;2023-03-22T09:33:35;-23726.63;;;17.72;51.68
29385;BME280;16367;48.736;9.218;2023-03-22T09:35:39;-23708.38;;;17.13;51.17
29385;BME280;16367;48.736;9.218;2023-03-22T09:37:43;-23723.94;;;17.63;50.96
29385;BME280;16367;48.736;9.218;2023-03-22T09:39:46;-23748.47;;;18.42;50.39
29385;BME280;16367;48.736;9.218;2023-03-22T09:41:51;-23683.16;;;16.33;53.43
29385;BME280;16367;48.736;9.218;2023-03-22T09:43:59;-23712.31;;;17.26;52.80
29385;BME280;16367;48.736;9.218;2023-03-22T09:46:06;-23700.19;;;16.87;53.01
29385;BME280;16367;48.736;9.218;2023-03-22T09:48:13;-23710.88;;;17.22;52.65
29385;BME280;16367;48.736;9.218;2023-03-22T09:50:19;-23712.78;;;17.28;52.34
29385;BME280;16367;48.736;9.218;2023-03-22T09:52:22;-23666.31;;;15.79;54.99
29385;BME280;16367;48.736;9.218;2023-03-22T09:54:31;-23731.03;;;17.86;52.80
29385;BME280;16367;48.736;9.218;2023-03-22T09:56:34;-23703.81;;;16.99;53.88
29385;BME280;16367;48.736;9.218;2023-03-22T09:58:42;-23717.50;;;17.43;52.86
29385;BME280;16367;48.736;9.218;2023-03-22T10:00:55;-23723.16;;;17.61;52.95
29385;BME280;16367;48.736;9.218;2023-03-22T10:03:07;-23752.56;;;18.55;50.31
29385;BME280;16367;48.736;9.218;2023-03-22T10:05:17;-23748.31;;;18.41;49.68
29385;BME280;16367;48.736;9.218;2023-03-22T10:07:27;-23722.22;;;17.58;52.01
29385;BME280;16367;48.736;9.218;2023-03-22T10:09:37;-23750.06;;;18.47;50.03
29385;BME280;16367;48.736;9.218;2023-03-22T10:11:46;-23683.47;;;16.34;53.56
29385;BME280;16367;48.736;9.218;2023-03-22T10:13:56;-23662.69;;;15.68;55.68
29385;BME280;16367;48.736;9.218;2023-03-22T10:16:05;-23688.22;;;16.49;54.34
29385;BME280;16367;48.736;9.218;2023-03-22T10:18:15;-23713.41;;;17.30;53.44
29385;BME280;16367;48.736;9.218;2023-03-22T10:20:29;-23711.03;;;17.22;52.36
29385;BME280;16367;48.736;9.218;2023-03-22T10:22:35;-23688.69;;;16.51;53.65
29385;BME280;16367;48.736;9.218;2023-03-22T10:24:41;-23666.16;;;15.79;55.20
29385;BME280;16367;48.736;9.218;2023-03-22T10:26:46;-23681.91;;;16.29;55.03
29385;BME280;16367;48.736;9.218;2023-03-22T10:28:55;-23680.66;;;16.25;54.75
29385;BME280;16367;48.736;9.218;2023-03-22T10:30:59;-23670.09;;;15.91;55.50
29385;BME280;16367;48.736;9.218;2023-03-22T10:33:13;-23655.41;;;15.44;56.52
29385;BME280;16367;48.736;9.218;2023-03-22T10:35:19;-23681.75;;;16.28;55.48
29385;BME280;16367;48.736;9.218;2023-03-22T10:37:23;-23697.50;;;16.79;54.42
29385;BME280;16367;48.736;9.218;2023-03-22T10:39:31;-23701.44;;;16.91;53.89
29385;BME280;16367;48.736;9.218;2023-03-22T10:41:35;-23697.19;;;16.78;54.02
29385;BME280;16367;48.736;9.218;2023-03-22T10:43:39;-23677.03;;;16.13;55.08
29385;BME280;16367;48.736;9.218;2023-03-22T10:45:43;-23676.56;;;16.12;54.26
29385;BME280;16367;48.736;9.218;2023-03-22T10:47:49;-23703.81;;;16.99;53.46
29385;BME280;16367;48.736;9.218;2023-03-22T10:49:56;-23704.75;;;17.02;54.20
29385;BME280;16367;48.736;9.218;2023-03-22T10:52:11;-23696.88;;;16.77;54.18
29385;BME280;16367;48.736;9.218;2023-03-22T10:54:19;-23702.06;;;16.93;53.63
29385;BME280;16367;48.736;9.218;2023-03-22T10:56:23;-23711.50;;;17.24;52.81